sensor_id;sensor_type;location;lat;lon;timestamp;pressure;altitude;pressure_sealevel;temperature;humidity
80620;BME280;69979;53.682;-2.690;2023-06-14T00:00:49;101468.68;;;18.74;25.88
80620;BME280;69979;53.682;-2.690;2023-06-14T00:03:15;101465.99;;;19.48;25.39
80620;BME280;69979;53.682;-2.690;2023-06-14T00:05:40;101468.36;;;19.07;25.39
80620;BME280;69979;53.682;-2.690;2023-06-14T00:08:05;101467.85;;;19.03;25.72
80620;BME280;69979;53.682;-2.690;2023-06-14T00:10:31;101469.76;;;19.10;25.16
80620;BME280;69979;53.682;-2.690;2023-06-14T00:12:56;101470.07;;;19.13;24.99
80620;BME280;69979;53.682;-2.690;2023-06-14T00:15:22;101469.87;;;18.82;25.00
80620;BME280;69979;53.682;-2.690;2023-06-14T00:17:47;101472.50;;;18.09;25.30
80620;BME280;69979;53.682;-2.690;2023-06-14T00:20:13;101478.18;;;18.44;25.19
80620;BME280;69979;53.682;-2.690;2023-06-14T00:22:38;101480.93;;;18.35;25.34
80620;BME280;69979;53.682;-2.690;2023-06-14T00:25:04;101482.62;;;18.33;25.27
80620;BME280;69979;53.682;-2.690;2023-06-14T00:27:29;101484.10;;;17.89;25.79
80620;BME280;69979;53.682;-2.690;2023-06-14T00:29:54;101487.34;;;17.72;26.18
80620;BME280;69979;53.682;-2.690;2023-06-14T00:32:20;101480.72;;;18.09;25.79
80620;BME280;69979;53.682;-2.690;2023-06-14T00:34:45;101482.61;;;18.12;26.23
80620;BME280;69979;53.682;-2.690;2023-06-14T00:37:11;101479.67;;;17.78;26.30
80620;BME280;69979;53.682;-2.690;2023-06-14T00:39:36;101477.36;;;17.60;26.80
80620;BME280;69979;53.682;-2.690;2023-06-14T00:42:02;101471.65;;;17.46;26.92
80620;BME280;69979;53.682;-2.690;2023-06-14T00:44:27;101468.86;;;17.66;27.14
80620;BME280;69979;53.682;-2.690;2023-06-14T00:46:52;101465.74;;;17.45;27.52
80620;BME280;69979;53.682;-2.690;2023-06-14T00:49:18;101465.68;;;17.91;26.98
80620;BME280;69979;53.682;-2.690;2023-06-14T00:51:43;101465.19;;;17.17;27.74
80620;BME280;69979;53.682;-2.690;2023-06-14T00:54:08;101465.82;;;17.19;27.86
80620;BME280;69979;53.682;-2.690;2023-06-14T00:56:35;101466.70;;;17.94;27.68
80620;BME280;69979;53.682;-2.690;2023-06-14T00:58:59;101463.80;;;17.50;27.89
80620;BME280;69979;53.682;-2.690;2023-06-14T01:01:24;101466.87;;;17.52;28.01
80620;BME280;69979;53.682;-2.690;2023-06-14T01:03:49;101464.80;;;17.31;28.65
80620;BME280;69979;53.682;-2.690;2023-06-14T01:06:21;101470.36;;;17.88;28.21
80620;BME280;69979;53.682;-2.690;2023-06-14T01:08:47;101475.47;;;18.07;28.11
80620;BME280;69979;53.682;-2.690;2023-06-14T01:11:10;101478.87;;;18.50;27.76
80620;BME280;69979;53.682;-2.690;2023-06-14T01:13:34;101480.04;;;18.91;27.40
80620;BME280;69979;53.682;-2.690;2023-06-14T01:15:56;101477.13;;;18.99;27.19
80620;BME280;69979;53.682;-2.690;2023-06-14T01:18:22;101479.43;;;18.38;27.77
80620;BME280;69979;53.682;-2.690;2023-06-14T01:20:47;101480.36;;;19.03;27.23
80620;BME280;69979;53.682;-2.690;2023-06-14T01:23:13;101479.47;;;19.44;26.73
80620;BME280;69979;53.682;-2.690;2023-06-14T01:25:38;101478.45;;;19.58;26.72
80620;BME280;69979;53.682;-2.690;2023-06-14T01:28:06;101475.32;;;19.83;26.33
80620;BME280;69979;53.682;-2.690;2023-06-14T01:30:30;101473.40;;;19.66;26.53
80620;BME280;69979;53.682;-2.690;2023-06-14T01:32:56;101475.01;;;19.88;26.32
80620;BME280;69979;53.682;-2.690;2023-06-14T01:35:20;101478.63;;;19.40;26.75
80620;BME280;69979;53.682;-2.690;2023-06-14T01:37:47;101479.46;;;19.07;27.21
80620;BME280;69979;53.682;-2.690;2023-06-14T01:40:12;101483.33;;;18.91;27.59
80620;BME280;69979;53.682;-2.690;2023-06-14T01:42:38;101484.04;;;18.84;28.20
80620;BME280;69979;53.682;-2.690;2023-06-14T01:45:02;101479.15;;;18.98;28.30
80620;BME280;69979;53.682;-2.690;2023-06-14T01:47:27;101475.67;;;18.28;29.27
80620;BME280;69979;53.682;-2.690;2023-06-14T01:49:52;101473.22;;;17.98;29.40
80620;BME280;69979;53.682;-2.690;2023-06-14T01:52:17;101473.47;;;17.90;29.74
80620;BME280;69979;53.682;-2.690;2023-06-14T01:54:43;101466.89;;;17.28;30.23
80620;BME280;69979;53.682;-2.690;2023-06-14T01:57:08;101468.23;;;17.47;30.39
80620;BME280;69979;53.682;-2.690;2023-06-14T01:59:34;101467.71;;;17.37;30.24
80620;BME280;69979;53.682;-2.690;2023-06-14T02:01:59;101468.89;;;17.29;29.62
80620;BME280;69979;53.682;-2.690;2023-06-14T02:04:25;101473.53;;;17.64;29.02
80620;BME280;69979;53.682;-2.690;2023-06-14T02:06:50;101475.87;;;18.62;27.81
80620;BME280;69979;53.682;-2.690;2023-06-14T02:09:16;101482.38;;;18.15;28.18
80620;BME280;69979;53.682;-2.690;2023-06-14T02:11:41;101482.54;;;18.71;27.50
80620;BME280;69979;53.682;-2.690;2023-06-14T02:14:06;101485.84;;;18.85;26.91
80620;BME280;69979;53.682;-2.690;2023-06-14T02:16:32;101485.50;;;18.86;25.91
80620;BME280;69979;53.682;-2.690;2023-06-14T02:18:57;101485.83;;;18.93;25.35
80620;BME280;69979;53.682;-2.690;2023-06-14T02:21:22;101486.88;;;18.43;25.24
80620;BME280;69979;53.682;-2.690;2023-06-14T02:23:48;101488.90;;;18.04;25.18
80620;BME280;69979;53.682;-2.690;2023-06-14T02:26:13;101483.00;;;17.32;25.51
80620;BME280;69979;53.682;-2.690;2023-06-14T02:28:39;101483.87;;;16.91;25.83
80620;BME280;69979;53.682;-2.690;2023-06-14T02:31:04;101485.21;;;16.83;25.84
80620;BME280;69979;53.682;-2.690;2023-06-14T02:33:30;101483.21;;;17.27;25.77
80620;BME280;69979;53.682;-2.690;2023-06-14T02:35:55;101480.69;;;17.29;25.60
80620;BME280;69979;53.682;-2.690;2023-06-14T02:38:21;101480.06;;;17.18;25.78
80620;BME280;69979;53.682;-2.690;2023-06-14T02:40:46;101487.63;;;17.86;25.28
80620;BME280;69979;53.682;-2.690;2023-06-14T02:43:12;101489.34;;;18.09;24.92
80620;BME280;69979;53.682;-2.690;2023-06-14T02:45:37;101492.30;;;17.38;26.66
80620;BME280;69979;53.682;-2.690;2023-06-14T02:48:03;101494.08;;;18.24;26.44
80620;BME280;69979;53.682;-2.690;2023-06-14T02:50:28;101498.86;;;18.71;25.22
80620;BME280;69979;53.682;-2.690;2023-06-14T02:52:53;101493.55;;;17.16;26.64
80620;BME280;69979;53.682;-2.690;2023-06-14T02:55:19;101501.00;;;18.40;26.55
80620;BME280;69979;53.682;-2.690;2023-06-14T02:57:44;101503.67;;;18.99;25.65
80620;BME280;69979;53.682;-2.690;2023-06-14T03:00:10;101506.79;;;18.58;25.70
80620;BME280;69979;53.682;-2.690;2023-06-14T03:02:35;101505.40;;;18.65;25.00
80620;BME280;69979;53.682;-2.690;2023-06-14T03:05:00;101509.34;;;19.09;24.97
80620;BME280;69979;53.682;-2.690;2023-06-14T03:07:26;101509.40;;;19.35;24.84
80620;BME280;69979;53.682;-2.690;2023-06-14T03:09:51;101512.75;;;19.31;24.65
80620;BME280;69979;53.682;-2.690;2023-06-14T03:12:16;101508.13;;;19.08;24.64
80620;BME280;69979;53.682;-2.690;2023-06-14T03:14:42;101512.60;;;18.94;24.71
80620;BME280;69979;53.682;-2.690;2023-06-14T03:17:08;101513.68;;;18.98;24.96
80620;BME280;69979;53.682;-2.690;2023-06-14T03:19:34;101511.05;;;16.11;27.91
80620;BME280;69979;53.682;-2.690;2023-06-14T03:21:59;101514.67;;;17.65;27.16
80620;BME280;69979;53.682;-2.690;2023-06-14T03:24:25;101518.83;;;18.36;25.70
80620;BME280;69979;53.682;-2.690;2023-06-14T03:26:50;101522.99;;;18.90;25.72
80620;BME280;69979;53.682;-2.690;2023-06-14T03:29:15;101528.57;;;19.00;25.62
80620;BME280;69979;53.682;-2.690;2023-06-14T03:34:06;101527.76;;;19.65;25.59
80620;BME280;69979;53.682;-2.690;2023-06-14T03:36:31;101528.99;;;19.02;25.50
80620;BME280;69979;53.682;-2.690;2023-06-14T03:38:57;101525.10;;;18.58;25.77
80620;BME280;69979;53.682;-2.690;2023-06-14T03:41:22;101526.78;;;18.55;26.45
80620;BME280;69979;53.682;-2.690;2023-06-14T03:43:48;101526.87;;;18.90;26.00
80620;BME280;69979;53.682;-2.690;2023-06-14T03:46:13;101529.25;;;18.80;26.07
80620;BME280;69979;53.682;-2.690;2023-06-14T03:48:39;101532.69;;;19.31;25.77
80620;BME280;69979;53.682;-2.690;2023-06-14T03:51:04;101531.25;;;19.65;25.57
80620;BME280;69979;53.682;-2.690;2023-06-14T03:53:30;101533.08;;;19.77;25.46
80620;BME280;69979;53.682;-2.690;2023-06-14T03:55:55;101537.25;;;19.42;25.73
80620;BME280;69979;53.682;-2.690;2023-06-14T03:58:20;101539.78;;;19.28;25.75
80620;BME280;69979;53.682;-2.690;2023-06-14T04:00:46;101538.77;;;19.72;25.67
80620;BME280;69979;53.682;-2.690;2023-06-14T04:03:11;101541.05;;;19.35;25.67
80620;BME280;69979;53.682;-2.690;2023-06-14T04:05:37;101544.91;;;19.39;26.00
80620;BME280;69979;53.682;-2.690;2023-06-14T04:08:02;101548.54;;;19.48;25.94
80620;BME280;69979;53.682;-2.690;2023-06-14T04:10:28;101547.37;;;19.81;26.08
80620;BME280;69979;53.682;-2.690;2023-06-14T04:12:53;101551.72;;;19.51;26.40
80620;BME280;69979;53.682;-2.690;2023-06-14T04:15:18;101548.48;;;19.73;25.96
80620;BME280;69979;53.682;-2.690;2023-06-14T04:17:44;101548.34;;;19.44;26.38
80620;BME280;69979;53.682;-2.690;2023-06-14T04:20:10;101549.41;;;19.62;26.03
80620;BME280;69979;53.682;-2.690;2023-06-14T04:22:35;101554.97;;;19.63;26.38
80620;BME280;69979;53.682;-2.690;2023-06-14T04:25:00;101553.14;;;19.86;26.33
80620;BME280;69979;53.682;-2.690;2023-06-14T04:27:26;101558.47;;;19.69;26.60
80620;BME280;69979;53.682;-2.690;2023-06-14T04:29:51;101561.75;;;19.84;26.55
80620;BME280;69979;53.682;-2.690;2023-06-14T04:32:16;101559.52;;;19.81;26.96
80620;BME280;69979;53.682;-2.690;2023-06-14T04:34:42;101561.11;;;19.56;27.21
80620;BME280;69979;53.682;-2.690;2023-06-14T04:37:07;101558.02;;;19.50;26.95
80620;BME280;69979;53.682;-2.690;2023-06-14T04:39:32;101555.06;;;19.68;26.77
80620;BME280;69979;53.682;-2.690;2023-06-14T04:41:57;101557.33;;;19.57;26.94
80620;BME280;69979;53.682;-2.690;2023-06-14T04:44:23;101560.90;;;19.07;27.16
80620;BME280;69979;53.682;-2.690;2023-06-14T04:46:48;101560.72;;;18.54;27.75
80620;BME280;69979;53.682;-2.690;2023-06-14T04:49:14;101559.75;;;18.55;27.69
80620;BME280;69979;53.682;-2.690;2023-06-14T04:51:39;101560.70;;;18.49;27.70
80620;BME280;69979;53.682;-2.690;2023-06-14T04:54:05;101561.85;;;18.70;28.06
80620;BME280;69979;53.682;-2.690;2023-06-14T04:56:30;101564.11;;;19.00;27.78
80620;BME280;69979;53.682;-2.690;2023-06-14T04:58:55;101560.59;;;19.00;28.09
80620;BME280;69979;53.682;-2.690;2023-06-14T05:01:21;101562.38;;;18.52;28.46
80620;BME280;69979;53.682;-2.690;2023-06-14T05:03:46;101563.64;;;19.12;28.30
80620;BME280;69979;53.682;-2.690;2023-06-14T05:06:12;101562.84;;;18.48;28.73
80620;BME280;69979;53.682;-2.690;2023-06-14T05:08:37;101564.86;;;18.20;29.04
80620;BME280;69979;53.682;-2.690;2023-06-14T05:11:03;101562.50;;;18.53;28.79
80620;BME280;69979;53.682;-2.690;2023-06-14T05:13:28;101565.29;;;18.15;29.06
80620;BME280;69979;53.682;-2.690;2023-06-14T05:15:54;101563.79;;;18.35;28.78
80620;BME280;69979;53.682;-2.690;2023-06-14T05:18:19;101562.58;;;18.39;28.36
80620;BME280;69979;53.682;-2.690;2023-06-14T05:20:45;101562.65;;;18.46;28.57
80620;BME280;69979;53.682;-2.690;2023-06-14T05:23:10;101561.90;;;18.57;28.33
80620;BME280;69979;53.682;-2.690;2023-06-14T05:25:35;101563.75;;;18.00;28.79
80620;BME280;69979;53.682;-2.690;2023-06-14T05:28:01;101563.12;;;18.69;28.29
80620;BME280;69979;53.682;-2.690;2023-06-14T05:30:26;101562.07;;;18.31;28.25
80620;BME280;69979;53.682;-2.690;2023-06-14T05:32:51;101560.31;;;18.47;28.39
80620;BME280;69979;53.682;-2.690;2023-06-14T05:35:17;101560.48;;;18.40;28.32
80620;BME280;69979;53.682;-2.690;2023-06-14T05:37:42;101559.27;;;18.30;28.80
80620;BME280;69979;53.682;-2.690;2023-06-14T05:40:08;101556.11;;;17.71;29.18
80620;BME280;69979;53.682;-2.690;2023-06-14T05:42:33;101555.97;;;18.14;29.07
80620;BME280;69979;53.682;-2.690;2023-06-14T05:44:58;101555.34;;;17.48;29.37
80620;BME280;69979;53.682;-2.690;2023-06-14T05:47:24;101556.26;;;18.33;28.86
80620;BME280;69979;53.682;-2.690;2023-06-14T05:49:49;101557.24;;;17.63;29.10
80620;BME280;69979;53.682;-2.690;2023-06-14T05:52:15;101555.28;;;17.74;29.15
80620;BME280;69979;53.682;-2.690;2023-06-14T05:54:40;101555.13;;;17.57;29.50
80620;BME280;69979;53.682;-2.690;2023-06-14T05:57:06;101553.66;;;17.86;29.01
80620;BME280;69979;53.682;-2.690;2023-06-14T05:59:31;101554.35;;;18.05;28.54
80620;BME280;69979;53.682;-2.690;2023-06-14T06:01:56;101551.35;;;18.21;28.83
80620;BME280;69979;53.682;-2.690;2023-06-14T06:04:23;101550.79;;;18.18;28.52
80620;BME280;69979;53.682;-2.690;2023-06-14T06:06:47;101551.20;;;18.06;28.47
80620;BME280;69979;53.682;-2.690;2023-06-14T06:09:13;101551.41;;;17.74;28.69
80620;BME280;69979;53.682;-2.690;2023-06-14T06:11:38;101558.13;;;17.58;28.71
80620;BME280;69979;53.682;-2.690;2023-06-14T06:14:04;101557.22;;;17.88;28.88
80620;BME280;69979;53.682;-2.690;2023-06-14T06:16:29;101561.67;;;18.67;28.50
80620;BME280;69979;53.682;-2.690;2023-06-14T06:18:55;101562.52;;;18.63;28.64
80620;BME280;69979;53.682;-2.690;2023-06-14T06:21:20;101560.12;;;18.46;28.52
80620;BME280;69979;53.682;-2.690;2023-06-14T06:23:45;101561.57;;;18.09;28.44
80620;BME280;69979;53.682;-2.690;2023-06-14T06:26:11;101558.52;;;18.43;28.53
80620;BME280;69979;53.682;-2.690;2023-06-14T06:28:37;101559.57;;;18.60;28.26
80620;BME280;69979;53.682;-2.690;2023-06-14T06:31:02;101562.34;;;18.79;28.47
80620;BME280;69979;53.682;-2.690;2023-06-14T06:33:27;101564.41;;;19.30;27.74
80620;BME280;69979;53.682;-2.690;2023-06-14T06:35:53;101563.08;;;18.82;28.48
80620;BME280;69979;53.682;-2.690;2023-06-14T06:38:18;101558.99;;;19.40;27.91
80620;BME280;69979;53.682;-2.690;2023-06-14T06:40:43;101559.32;;;19.39;28.04
80620;BME280;69979;53.682;-2.690;2023-06-14T06:43:09;101558.62;;;19.26;27.77
80620;BME280;69979;53.682;-2.690;2023-06-14T06:45:34;101560.55;;;19.35;27.58
80620;BME280;69979;53.682;-2.690;2023-06-14T06:47:59;101559.19;;;19.65;26.79
80620;BME280;69979;53.682;-2.690;2023-06-14T06:50:25;101565.61;;;19.35;27.24
80620;BME280;69979;53.682;-2.690;2023-06-14T06:52:50;101566.46;;;18.95;27.84
80620;BME280;69979;53.682;-2.690;2023-06-14T06:55:16;101563.02;;;19.26;27.33
80620;BME280;69979;53.682;-2.690;2023-06-14T06:57:41;101560.58;;;19.94;27.67
80620;BME280;69979;53.682;-2.690;2023-06-14T07:00:07;101558.86;;;19.44;27.26
80620;BME280;69979;53.682;-2.690;2023-06-14T07:02:32;101561.11;;;19.46;27.44
80620;BME280;69979;53.682;-2.690;2023-06-14T07:04:57;101562.68;;;19.18;27.22
80620;BME280;69979;53.682;-2.690;2023-06-14T07:07:23;101558.32;;;19.36;27.51
80620;BME280;69979;53.682;-2.690;2023-06-14T07:09:48;101562.46;;;19.36;27.87
80620;BME280;69979;53.682;-2.690;2023-06-14T07:12:13;101562.66;;;20.26;26.75
80620;BME280;69979;53.682;-2.690;2023-06-14T07:14:39;101566.69;;;19.52;27.16
80620;BME280;69979;53.682;-2.690;2023-06-14T07:17:04;101566.16;;;20.35;26.96
80620;BME280;69979;53.682;-2.690;2023-06-14T07:19:30;101568.34;;;20.54;26.24
80620;BME280;69979;53.682;-2.690;2023-06-14T07:21:55;101567.34;;;20.25;26.26
80620;BME280;69979;53.682;-2.690;2023-06-14T07:24:20;101565.15;;;20.52;25.70
80620;BME280;69979;53.682;-2.690;2023-06-14T07:26:45;101564.90;;;20.85;26.35
80620;BME280;69979;53.682;-2.690;2023-06-14T07:29:11;101564.41;;;21.15;26.24
80620;BME280;69979;53.682;-2.690;2023-06-14T07:31:36;101564.42;;;21.54;25.82
80620;BME280;69979;53.682;-2.690;2023-06-14T07:34:02;101563.24;;;20.84;25.34
80620;BME280;69979;53.682;-2.690;2023-06-14T07:36:27;101564.68;;;20.85;25.89
80620;BME280;69979;53.682;-2.690;2023-06-14T07:38:52;101565.59;;;21.39;25.77
80620;BME280;69979;53.682;-2.690;2023-06-14T07:41:18;101569.81;;;21.69;25.34
80620;BME280;69979;53.682;-2.690;2023-06-14T07:43:43;101565.46;;;20.78;26.14
80620;BME280;69979;53.682;-2.690;2023-06-14T07:46:09;101561.90;;;22.23;25.40
80620;BME280;69979;53.682;-2.690;2023-06-14T07:48:34;101560.60;;;22.28;24.47
80620;BME280;69979;53.682;-2.690;2023-06-14T07:50:59;101561.62;;;22.68;23.83
80620;BME280;69979;53.682;-2.690;2023-06-14T07:53:25;101563.91;;;21.67;24.47
80620;BME280;69979;53.682;-2.690;2023-06-14T07:55:50;101560.54;;;21.10;24.96
80620;BME280;69979;53.682;-2.690;2023-06-14T07:58:15;101557.13;;;21.53;24.97
80620;BME280;69979;53.682;-2.690;2023-06-14T08:00:41;101553.90;;;21.90;24.38
80620;BME280;69979;53.682;-2.690;2023-06-14T08:03:06;101552.77;;;21.84;24.54
80620;BME280;69979;53.682;-2.690;2023-06-14T08:05:31;101546.29;;;21.82;24.75
80620;BME280;69979;53.682;-2.690;2023-06-14T08:07:57;101546.88;;;21.27;24.83
80620;BME280;69979;53.682;-2.690;2023-06-14T08:10:23;101546.29;;;21.49;24.21
80620;BME280;69979;53.682;-2.690;2023-06-14T08:12:48;101548.59;;;19.81;25.55
80620;BME280;69979;53.682;-2.690;2023-06-14T08:15:13;101548.94;;;20.55;24.60
80620;BME280;69979;53.682;-2.690;2023-06-14T08:17:39;101551.09;;;20.50;24.94
80620;BME280;69979;53.682;-2.690;2023-06-14T08:20:05;101551.20;;;20.86;24.55
80620;BME280;69979;53.682;-2.690;2023-06-14T08:22:30;101552.15;;;20.25;24.41
80620;BME280;69979;53.682;-2.690;2023-06-14T08:24:55;101550.76;;;19.22;25.25
80620;BME280;69979;53.682;-2.690;2023-06-14T08:27:20;101551.27;;;19.99;25.17
80620;BME280;69979;53.682;-2.690;2023-06-14T08:29:46;101549.83;;;19.66;25.17
80620;BME280;69979;53.682;-2.690;2023-06-14T08:32:11;101552.47;;;19.47;25.04
80620;BME280;69979;53.682;-2.690;2023-06-14T08:34:36;101546.00;;;19.81;24.59
80620;BME280;69979;53.682;-2.690;2023-06-14T08:37:02;101547.60;;;19.75;24.60
80620;BME280;69979;53.682;-2.690;2023-06-14T08:39:27;101547.88;;;19.92;25.13
80620;BME280;69979;53.682;-2.690;2023-06-14T08:41:53;101550.48;;;20.37;24.45
80620;BME280;69979;53.682;-2.690;2023-06-14T08:44:18;101548.36;;;19.82;24.62
80620;BME280;69979;53.682;-2.690;2023-06-14T08:46:44;101545.47;;;20.31;25.05
80620;BME280;69979;53.682;-2.690;2023-06-14T08:49:11;101548.84;;;20.04;24.79
80620;BME280;69979;53.682;-2.690;2023-06-14T08:51:35;101540.93;;;20.14;25.11
80620;BME280;69979;53.682;-2.690;2023-06-14T08:54:00;101543.46;;;20.15;24.81
80620;BME280;69979;53.682;-2.690;2023-06-14T08:56:26;101542.81;;;20.34;24.64
80620;BME280;69979;53.682;-2.690;2023-06-14T08:58:50;101535.96;;;20.66;25.06
80620;BME280;69979;53.682;-2.690;2023-06-14T09:01:16;101532.73;;;20.61;24.27
80620;BME280;69979;53.682;-2.690;2023-06-14T09:03:41;101536.26;;;20.70;24.57
80620;BME280;69979;53.682;-2.690;2023-06-14T09:06:06;101534.07;;;20.14;24.89
80620;BME280;69979;53.682;-2.690;2023-06-14T09:08:32;101534.07;;;20.54;25.00
80620;BME280;69979;53.682;-2.690;2023-06-14T09:10:57;101536.86;;;20.85;24.74
80620;BME280;69979;53.682;-2.690;2023-06-14T09:13:22;101543.31;;;20.94;25.02
80620;BME280;69979;53.682;-2.690;2023-06-14T09:15:48;101543.29;;;21.36;23.71
80620;BME280;69979;53.682;-2.690;2023-06-14T09:18:13;101539.65;;;21.29;24.31
80620;BME280;69979;53.682;-2.690;2023-06-14T09:20:38;101535.89;;;21.26;24.30
80620;BME280;69979;53.682;-2.690;2023-06-14T09:23:04;101543.19;;;20.99;24.34
80620;BME280;69979;53.682;-2.690;2023-06-14T09:25:29;101542.00;;;21.38;24.50
80620;BME280;69979;53.682;-2.690;2023-06-14T09:27:54;101540.48;;;20.54;25.07
80620;BME280;69979;53.682;-2.690;2023-06-14T09:30:20;101543.09;;;21.21;25.21
80620;BME280;69979;53.682;-2.690;2023-06-14T09:32:45;101544.92;;;20.84;25.17
80620;BME280;69979;53.682;-2.690;2023-06-14T09:35:10;101543.85;;;21.30;25.60
80620;BME280;69979;53.682;-2.690;2023-06-14T09:37:36;101544.33;;;20.79;25.86
80620;BME280;69979;53.682;-2.690;2023-06-14T09:40:03;101532.98;;;21.05;25.09
80620;BME280;69979;53.682;-2.690;2023-06-14T09:42:27;101537.50;;;21.17;25.31
80620;BME280;69979;53.682;-2.690;2023-06-14T09:44:53;101536.71;;;22.07;24.39
80620;BME280;69979;53.682;-2.690;2023-06-14T09:47:17;101547.84;;;22.30;23.99
80620;BME280;69979;53.682;-2.690;2023-06-14T09:49:42;101541.76;;;22.97;23.81
80620;BME280;69979;53.682;-2.690;2023-06-14T09:52:09;101542.26;;;22.98;23.48
80620;BME280;69979;53.682;-2.690;2023-06-14T09:54:35;101543.36;;;22.92;23.05
80620;BME280;69979;53.682;-2.690;2023-06-14T09:56:59;101543.61;;;22.51;23.22
80620;BME280;69979;53.682;-2.690;2023-06-14T09:59:27;101551.28;;;23.11;22.74
80620;BME280;69979;53.682;-2.690;2023-06-14T10:01:49;101549.74;;;22.61;22.82
80620;BME280;69979;53.682;-2.690;2023-06-14T10:04:15;101543.57;;;21.24;23.89
80620;BME280;69979;53.682;-2.690;2023-06-14T10:06:41;101541.40;;;21.97;23.25
80620;BME280;69979;53.682;-2.690;2023-06-14T10:09:08;101545.59;;;22.15;23.57
80620;BME280;69979;53.682;-2.690;2023-06-14T10:11:30;101542.08;;;22.31;23.66
80620;BME280;69979;53.682;-2.690;2023-06-14T10:13:56;101546.55;;;22.18;22.71
80620;BME280;69979;53.682;-2.690;2023-06-14T10:16:26;101549.38;;;22.29;23.12
80620;BME280;69979;53.682;-2.690;2023-06-14T10:18:51;101538.62;;;22.14;22.55
80620;BME280;69979;53.682;-2.690;2023-06-14T10:21:20;101543.53;;;21.99;23.33
80620;BME280;69979;53.682;-2.690;2023-06-14T10:23:40;101541.72;;;22.57;22.78
80620;BME280;69979;53.682;-2.690;2023-06-14T10:26:02;101540.81;;;22.55;22.35
80620;BME280;69979;53.682;-2.690;2023-06-14T10:28:27;101542.52;;;22.65;22.47
80620;BME280;69979;53.682;-2.690;2023-06-14T10:31:03;101543.52;;;22.27;23.02
80620;BME280;69979;53.682;-2.690;2023-06-14T10:33:18;101541.96;;;22.75;22.61
80620;BME280;69979;53.682;-2.690;2023-06-14T10:35:43;101540.52;;;22.75;23.02
80620;BME280;69979;53.682;-2.690;2023-06-14T10:38:11;101545.51;;;22.99;22.55
80620;BME280;69979;53.682;-2.690;2023-06-14T10:40:35;101545.74;;;22.55;23.57
80620;BME280;69979;53.682;-2.690;2023-06-14T10:43:00;101543.62;;;22.52;22.89
80620;BME280;69979;53.682;-2.690;2023-06-14T10:45:25;101540.69;;;22.90;23.04
80620;BME280;69979;53.682;-2.690;2023-06-14T10:47:50;101528.05;;;22.32;23.45
80620;BME280;69979;53.682;-2.690;2023-06-14T10:50:16;101538.60;;;22.77;22.30
80620;BME280;69979;53.682;-2.690;2023-06-14T10:52:43;101534.65;;;22.80;22.85
80620;BME280;69979;53.682;-2.690;2023-06-14T10:55:09;101534.35;;;22.69;23.52
80620;BME280;69979;53.682;-2.690;2023-06-14T10:57:33;101536.64;;;23.17;23.66
80620;BME280;69979;53.682;-2.690;2023-06-14T10:59:58;101533.01;;;23.50;22.48
80620;BME280;69979;53.682;-2.690;2023-06-14T11:02:41;101531.94;;;23.67;20.54
80620;BME280;69979;53.682;-2.690;2023-06-14T11:04:49;101530.32;;;23.91;20.65
80620;BME280;69979;53.682;-2.690;2023-06-14T11:07:26;101531.27;;;24.28;21.51
80620;BME280;69979;53.682;-2.690;2023-06-14T11:09:52;101529.71;;;23.88;21.59
80620;BME280;69979;53.682;-2.690;2023-06-14T11:12:06;101533.17;;;23.77;21.52
80620;BME280;69979;53.682;-2.690;2023-06-14T11:14:30;101525.86;;;23.85;21.01
80620;BME280;69979;53.682;-2.690;2023-06-14T11:16:55;101524.21;;;23.80;21.60
80620;BME280;69979;53.682;-2.690;2023-06-14T11:19:21;101515.92;;;23.79;22.57
80620;BME280;69979;53.682;-2.690;2023-06-14T11:21:47;101517.64;;;23.81;22.14
80620;BME280;69979;53.682;-2.690;2023-06-14T11:24:11;101511.92;;;23.65;22.93
80620;BME280;69979;53.682;-2.690;2023-06-14T11:26:37;101513.55;;;23.02;22.96
80620;BME280;69979;53.682;-2.690;2023-06-14T11:29:01;101507.00;;;23.32;22.26
80620;BME280;69979;53.682;-2.690;2023-06-14T11:31:27;101506.26;;;23.42;21.99
80620;BME280;69979;53.682;-2.690;2023-06-14T11:33:53;101502.80;;;23.10;21.94
80620;BME280;69979;53.682;-2.690;2023-06-14T11:36:17;101500.22;;;23.76;20.88
80620;BME280;69979;53.682;-2.690;2023-06-14T11:38:42;101500.93;;;23.87;20.76
80620;BME280;69979;53.682;-2.690;2023-06-14T11:41:07;101513.12;;;23.59;21.53
80620;BME280;69979;53.682;-2.690;2023-06-14T11:43:33;101498.98;;;24.27;21.39
80620;BME280;69979;53.682;-2.690;2023-06-14T11:45:58;101512.70;;;23.48;21.43
80620;BME280;69979;53.682;-2.690;2023-06-14T11:48:23;101504.95;;;23.33;20.87
80620;BME280;69979;53.682;-2.690;2023-06-14T11:50:50;101509.09;;;23.52;20.75
80620;BME280;69979;53.682;-2.690;2023-06-14T11:53:14;101502.33;;;23.84;20.66
80620;BME280;69979;53.682;-2.690;2023-06-14T11:55:39;101500.26;;;23.81;20.81
80620;BME280;69979;53.682;-2.690;2023-06-14T11:58:05;101503.59;;;23.18;20.89
80620;BME280;69979;53.682;-2.690;2023-06-14T12:00:30;101508.06;;;23.45;21.21
80620;BME280;69979;53.682;-2.690;2023-06-14T12:02:56;101501.05;;;23.49;20.41
80620;BME280;69979;53.682;-2.690;2023-06-14T12:05:21;101495.09;;;24.44;20.42
80620;BME280;69979;53.682;-2.690;2023-06-14T12:07:47;101498.16;;;24.03;20.66
80620;BME280;69979;53.682;-2.690;2023-06-14T12:10:11;101494.27;;;24.24;20.22
80620;BME280;69979;53.682;-2.690;2023-06-14T12:12:38;101497.80;;;24.58;18.61
80620;BME280;69979;53.682;-2.690;2023-06-14T12:15:03;101492.11;;;24.57;19.61
80620;BME280;69979;53.682;-2.690;2023-06-14T12:17:32;101495.26;;;24.51;20.31
80620;BME280;69979;53.682;-2.690;2023-06-14T12:19:52;101485.87;;;23.93;20.64
80620;BME280;69979;53.682;-2.690;2023-06-14T12:22:18;101492.19;;;24.28;20.99
80620;BME280;69979;53.682;-2.690;2023-06-14T12:24:44;101488.75;;;24.37;20.09
80620;BME280;69979;53.682;-2.690;2023-06-14T12:27:08;101499.95;;;23.33;18.71
80620;BME280;69979;53.682;-2.690;2023-06-14T12:29:33;101498.36;;;23.03;19.71
80620;BME280;69979;53.682;-2.690;2023-06-14T12:31:59;101490.49;;;23.85;20.12